Time;durP1;ratioP1;P1;durP2;ratioP2;P2;SDS_P1;SDS_P2;PMS_P1;PMS_P2;Temp;Humidity;BMP_temperature;BMP_pressure;BME280_temperature;BME280_humidity;BME280_pressure;Samples;Min_cycle;Max_cycle;Signal;HPM_P1;HPM_P2
2023/08/13 00:02:08;;;;;;;8.87;8.20;;;21.80;61.00;;;;;;6245690;23;20158;-77
2023/08/13 00:04:34;;;;;;;8.00;7.50;;;21.80;60.80;;;;;;6244145;23;20182;-75
2023/08/13 00:07:00;;;;;;;9.40;8.50;;;21.80;60.60;;;;;;6245723;23;20250;-77
2023/08/13 00:09:26;;;;;;;8.93;8.33;;;21.80;60.20;;;;;;6245322;23;20493;-77
2023/08/13 00:11:53;;;;;;;8.67;8.13;;;21.80;59.50;;;;;;6243975;22;20485;-77
2023/08/13 00:14:18;;;;;;;8.00;7.50;;;21.80;59.70;;;;;;6244075;23;20189;-77
2023/08/13 00:16:44;;;;;;;8.90;8.33;;;21.70;59.60;;;;;;6245547;22;20414;-77
2023/08/13 00:19:10;;;;;;;8.47;7.87;;;21.70;59.30;;;;;;6245450;22;20155;-77
2023/08/13 00:21:35;;;;;;;7.63;7.13;;;21.70;59.00;;;;;;6245461;22;20398;-77
2023/08/13 00:24:01;;;;;;;9.27;8.57;;;21.70;58.90;;;;;;6245567;23;20526;-77
2023/08/13 00:26:27;;;;;;;8.70;8.20;;;21.70;58.80;;;;;;6244226;23;20152;-77
2023/08/13 00:28:52;;;;;;;8.87;8.20;;;21.70;58.60;;;;;;6245275;23;20465;-77
2023/08/13 00:31:18;;;;;;;8.53;8.03;;;21.70;58.80;;;;;;6245235;22;20213;-77
2023/08/13 00:33:43;;;;;;;8.10;7.60;;;21.60;58.60;;;;;;6245580;23;20216;-77
2023/08/13 00:36:09;;;;;;;8.70;8.13;;;21.70;58.50;;;;;;6245523;23;20587;-77
2023/08/13 00:38:34;;;;;;;8.07;7.67;;;21.70;58.10;;;;;;6245083;23;20150;-77
2023/08/13 00:41:00;;;;;;;7.93;7.53;;;21.70;58.00;;;;;;6245305;22;20174;-77
2023/08/13 00:43:25;;;;;;;7.50;7.00;;;21.60;57.40;;;;;;6245227;23;20166;-77
2023/08/13 00:45:51;;;;;;;7.20;6.90;;;21.70;57.20;;;;;;6218674;23;20502;-77
2023/08/13 00:48:17;;;;;;;8.67;8.07;;;21.70;56.80;;;;;;6244894;23;20178;-77
2023/08/13 00:50:45;;;;;;;7.40;6.97;;;21.60;56.50;;;;;;6245050;22;20186;-77
2023/08/13 00:53:12;;;;;;;7.50;6.93;;;21.70;56.60;;;;;;6245272;23;20371;-75
2023/08/13 00:55:37;;;;;;;8.50;8.00;;;21.70;56.60;;;;;;6245077;23;20370;-77
2023/08/13 00:58:03;;;;;;;7.40;6.93;;;21.60;56.00;;;;;;6218126;23;20417;-75
2023/08/13 01:00:30;;;;;;;7.60;7.17;;;21.60;56.00;;;;;;6218202;23;20515;-77
2023/08/13 01:02:56;;;;;;;7.73;7.27;;;21.70;55.80;;;;;;6218275;23;20412;-77
2023/08/13 01:05:27;;;;;;;8.03;7.40;;;21.60;56.50;;;;;;6245054;23;20374;-77
2023/08/13 01:08:15;;;;;;;8.27;7.77;;;21.60;55.60;;;;;;6218166;23;20147;-77
2023/08/13 01:10:44;;;;;;;8.20;7.70;;;21.50;55.90;;;;;;6244740;22;20468;-77
2023/08/13 01:13:20;;;;;;;8.40;7.90;;;21.40;56.60;;;;;;6245027;23;20827;-77
2023/08/13 01:15:46;;;;;;;8.07;7.43;;;21.40;57.30;;;;;;6244943;23;20397;-77
2023/08/13 01:18:13;;;;;;;7.50;7.10;;;21.30;57.30;;;;;;6244636;23;20371;-77
2023/08/13 01:20:41;;;;;;;7.97;7.50;;;21.30;57.80;;;;;;6244893;22;20182;-77
2023/08/13 01:23:07;;;;;;;8.70;8.10;;;21.30;57.90;;;;;;6244917;23;20425;-76
2023/08/13 01:25:33;;;;;;;7.80;7.30;;;21.30;57.70;;;;;;6244904;23;20382;-77
2023/08/13 01:28:39;;;;;;;6.90;6.60;;;21.30;57.60;;;;;;6244380;23;20158;-77
2023/08/13 01:31:11;;;;;;;7.50;7.00;;;21.40;57.70;;;;;;6173547;23;20438;-78
2023/08/13 01:33:40;;;;;;;7.90;7.40;;;21.40;57.60;;;;;;6244990;23;20369;-77
2023/08/13 01:36:07;;;;;;;7.90;7.50;;;21.30;57.50;;;;;;6244870;23;20420;-77
2023/08/13 01:38:34;;;;;;;8.00;7.30;;;21.40;57.50;;;;;;6244449;23;20414;-77
2023/08/13 01:41:03;;;;;;;11.43;7.60;;;21.40;57.70;;;;;;6244745;22;20409;-77
2023/08/13 01:43:29;;;;;;;7.87;7.27;;;21.30;57.90;;;;;;6244645;23;20389;-77
2023/08/13 01:45:55;;;;;;;7.83;7.40;;;21.40;57.90;;;;;;6244744;23;20700;-77
2023/08/13 01:48:21;;;;;;;7.10;6.80;;;21.40;57.70;;;;;;6244384;23;20147;-77
2023/08/13 01:50:46;;;;;;;7.90;7.50;;;21.30;57.70;;;;;;6244461;22;20417;-77
2023/08/13 01:53:11;;;;;;;7.93;7.40;;;21.30;57.50;;;;;;6244682;23;20175;-77
2023/08/13 01:55:37;;;;;;;7.93;7.53;;;21.30;57.40;;;;;;6244616;23;20246;-77
2023/08/13 01:58:03;;;;;;;7.27;6.93;;;21.30;57.50;;;;;;6217547;23;20563;-77
2023/08/13 02:00:29;;;;;;;9.63;8.60;;;21.30;57.50;;;;;;6244493;22;20220;-77
2023/08/13 02:02:55;;;;;;;8.10;7.60;;;21.40;56.90;;;;;;6244658;23;20838;-77
2023/08/13 02:05:21;;;;;;;7.90;7.40;;;21.30;56.50;;;;;;6244379;23;20158;-77
2023/08/13 02:07:46;;;;;;;8.30;7.90;;;21.30;56.50;;;;;;6217602;23;20730;-77
2023/08/13 02:10:12;;;;;;;8.53;7.90;;;21.30;56.70;;;;;;6243978;22;20179;-77
2023/08/13 02:12:38;;;;;;;8.20;7.60;;;21.30;56.70;;;;;;6244522;23;20268;-75
2023/08/13 02:15:05;;;;;;;8.10;7.30;;;21.30;56.40;;;;;;6244428;23;20158;-75
2023/08/13 02:17:30;;;;;;;8.27;7.83;;;21.30;56.50;;;;;;6244575;23;20378;-75
2023/08/13 02:19:56;;;;;;;7.73;7.30;;;21.30;56.50;;;;;;6244112;22;20371;-75
2023/08/13 02:22:21;;;;;;;9.80;7.37;;;21.30;56.50;;;;;;6217522;23;20470;-75
2023/08/13 02:24:47;;;;;;;8.43;7.83;;;21.30;56.50;;;;;;6244347;23;20152;-75
2023/08/13 02:27:12;;;;;;;8.53;8.03;;;21.30;56.50;;;;;;6217568;23;20763;-75
2023/08/13 02:29:41;;;;;;;8.50;7.97;;;21.30;56.50;;;;;;6243938;23;20175;-75
2023/08/13 02:32:06;;;;;;;8.90;8.13;;;21.30;56.60;;;;;;6244352;23;20144;-75
2023/08/13 02:34:33;;;;;;;8.37;7.77;;;21.30;56.50;;;;;;6244237;23;20377;-75
2023/08/13 02:36:59;;;;;;;7.67;7.27;;;21.30;56.50;;;;;;6244381;23;20152;-75
2023/08/13 02:39:25;;;;;;;8.10;7.60;;;21.30;56.60;;;;;;6243887;23;20375;-77
2023/08/13 02:41:50;;;;;;;8.53;7.80;;;21.30;56.70;;;;;;6244147;22;20398;-75
2023/08/13 02:44:16;;;;;;;8.00;7.40;;;21.30;56.70;;;;;;6244071;23;20246;-75
2023/08/13 02:46:41;;;;;;;8.50;7.90;;;21.40;57.00;;;;;;6244178;23;20176;-75
2023/08/13 02:49:07;;;;;;;7.83;7.43;;;21.30;56.90;;;;;;6243779;23;20269;-75
2023/08/13 02:51:33;;;;;;;8.47;7.80;;;21.30;57.10;;;;;;6244063;22;20731;-75
2023/08/13 02:53:58;;;;;;;7.57;7.17;;;21.30;57.20;;;;;;6244154;23;20152;-76
2023/08/13 02:56:24;;;;;;;7.90;7.50;;;21.30;58.10;;;;;;6244143;23;20584;-76
2023/08/13 02:58:49;;;;;;;8.57;8.07;;;21.40;57.40;;;;;;6243907;23;20147;-76
2023/08/13 03:01:15;;;;;;;8.80;8.30;;;21.40;57.00;;;;;;6244130;22;20221;-76
2023/08/13 03:03:40;;;;;;;8.80;8.17;;;21.30;57.60;;;;;;6244153;23;20596;-76
2023/08/13 03:06:06;;;;;;;8.73;7.83;;;21.30;57.70;;;;;;6244114;23;20603;-76
2023/08/13 03:08:31;;;;;;;7.57;7.03;;;21.30;57.70;;;;;;6243783;23;20223;-76
2023/08/13 03:10:57;;;;;;;7.60;7.20;;;21.30;57.40;;;;;;6217121;23;20209;-76
2023/08/13 03:13:22;;;;;;;7.57;7.17;;;21.30;57.10;;;;;;6217392;23;20151;-76
2023/08/13 03:15:48;;;;;;;8.63;8.00;;;21.30;57.00;;;;;;6244072;23;20664;-76
2023/08/13 03:18:13;;;;;;;7.83;7.30;;;21.20;57.10;;;;;;6243773;23;20154;-76
2023/08/13 03:20:39;;;;;;;8.73;8.23;;;21.30;57.20;;;;;;6217261;23;20182;-76
2023/08/13 03:23:05;;;;;;;8.30;7.70;;;21.30;57.30;;;;;;6217331;23;20167;-76
2023/08/13 03:25:30;;;;;;;8.50;8.00;;;21.30;57.40;;;;;;6217210;23;20217;-76
2023/08/13 03:27:56;;;;;;;8.47;7.97;;;21.30;57.30;;;;;;6217150;23;20187;-76
2023/08/13 03:30:22;;;;;;;8.10;7.70;;;21.30;57.20;;;;;;6243724;22;20689;-76
2023/08/13 03:32:47;;;;;;;7.90;7.37;;;21.30;57.10;;;;;;6244075;23;20201;-76
2023/08/13 03:35:13;;;;;;;8.40;7.90;;;21.30;57.30;;;;;;6217268;23;20151;-76
2023/08/13 03:37:38;;;;;;;8.87;8.07;;;21.30;57.10;;;;;;6217044;23;20155;-76
2023/08/13 03:40:05;;;;;;;7.50;7.10;;;21.30;57.00;;;;;;6243718;22;20175;-76
2023/08/13 03:42:31;;;;;;;8.47;7.93;;;21.30;57.00;;;;;;6295114;22;20194;-76
2023/08/13 03:44:56;;;;;;;7.80;7.30;;;21.30;56.80;;;;;;6278914;22;20411;-76
2023/08/13 03:47:22;;;;;;;7.50;7.00;;;21.30;57.10;;;;;;6278306;22;20208;-76
2023/08/13 03:49:47;;;;;;;8.40;7.87;;;21.30;56.80;;;;;;6278930;22;20174;-76
2023/08/13 03:52:13;;;;;;;7.57;7.17;;;21.30;57.00;;;;;;6284431;22;20170;-76
2023/08/13 03:54:38;;;;;;;8.47;7.93;;;21.30;57.10;;;;;;6276536;22;20147;-76
2023/08/13 03:57:04;;;;;;;8.57;8.07;;;21.30;57.10;;;;;;6275033;22;20142;-76
2023/08/13 03:59:29;;;;;;;9.10;8.50;;;21.30;57.10;;;;;;6274916;22;20154;-76
2023/08/13 04:01:57;;;;;;;8.53;8.10;;;21.30;57.20;;;;;;6275262;22;20171;-76
2023/08/13 04:04:23;;;;;;;8.23;7.70;;;21.30;57.30;;;;;;6247853;22;20606;-76
2023/08/13 04:06:48;;;;;;;8.70;8.17;;;21.30;57.50;;;;;;6275526;22;20374;-76
2023/08/13 04:09:14;;;;;;;9.03;8.47;;;21.20;57.50;;;;;;6274626;22;20590;-76
2023/08/13 04:11:39;;;;;;;8.13;7.63;;;21.30;57.70;;;;;;6277439;22;20163;-76
2023/08/13 04:14:05;;;;;;;8.40;7.90;;;21.20;57.90;;;;;;6251023;22;20155;-76
2023/08/13 04:16:30;;;;;;;8.23;7.73;;;21.30;58.00;;;;;;6278212;22;20154;-76
2023/08/13 04:18:56;;;;;;;7.93;7.53;;;21.30;58.00;;;;;;6277632;22;20204;-77
2023/08/13 04:21:24;;;;;;;8.53;7.97;;;21.20;57.90;;;;;;6281939;22;20201;-76
2023/08/13 04:23:53;;;;;;;8.13;7.73;;;21.20;57.90;;;;;;6278807;22;20147;-76
2023/08/13 04:26:18;;;;;;;9.00;8.40;;;21.20;57.90;;;;;;6278956;22;20463;-76
2023/08/13 04:28:44;;;;;;;8.77;8.17;;;21.30;58.20;;;;;;6251481;22;20369;-76
2023/08/13 04:31:09;;;;;;;8.40;7.90;;;21.20;58.20;;;;;;6278949;22;20202;-76
2023/08/13 04:33:35;;;;;;;7.80;7.40;;;21.20;58.30;;;;;;6252687;22;20155;-75
2023/08/13 04:36:00;;;;;;;7.43;7.13;;;21.30;58.40;;;;;;6290158;22;20142;-75
2023/08/13 04:38:26;;;;;;;8.40;7.67;;;21.30;58.20;;;;;;6302908;22;20147;-75
2023/08/13 04:40:51;;;;;;;8.13;7.53;;;21.30;57.60;;;;;;6303248;22;20170;-74
2023/08/13 04:43:17;;;;;;;8.43;7.93;;;21.20;57.50;;;;;;6276061;22;20177;-75
2023/08/13 04:45:48;;;;;;;7.77;7.37;;;21.20;58.10;;;;;;6302369;22;20151;-75
2023/08/13 04:48:17;;;;;;;7.80;7.40;;;21.20;58.40;;;;;;6302483;22;20155;-77
2023/08/13 04:50:42;;;;;;;8.30;7.63;;;21.30;58.50;;;;;;6274476;22;20417;-75
2023/08/13 04:53:08;;;;;;;7.47;7.07;;;21.30;58.10;;;;;;6300341;22;20396;-75
2023/08/13 04:55:33;;;;;;;8.13;7.73;;;21.30;57.90;;;;;;6255517;22;20154;-74
2023/08/13 04:57:59;;;;;;;7.87;7.37;;;21.20;58.10;;;;;;6278555;22;20210;-75
2023/08/13 05:00:25;;;;;;;7.70;7.30;;;21.10;58.90;;;;;;6278101;22;20147;-75
2023/08/13 05:02:50;;;;;;;8.20;7.70;;;21.10;59.80;;;;;;6278973;22;20704;-76
2023/08/13 05:05:15;;;;;;;9.23;8.20;;;21.00;60.40;;;;;;6277012;22;20224;-76
2023/08/13 05:07:41;;;;;;;8.70;8.00;;;21.00;60.30;;;;;;6276256;22;20146;-76
2023/08/13 05:10:07;;;;;;;8.27;7.57;;;20.90;61.70;;;;;;6249107;22;20175;-76
2023/08/13 05:12:33;;;;;;;9.57;8.83;;;20.90;62.70;;;;;;6277290;22;20630;-76
2023/08/13 05:14:58;;;;;;;8.40;7.90;;;21.00;63.70;;;;;;6276653;22;20155;-76
2023/08/13 05:17:25;;;;;;;8.87;8.23;;;21.00;63.70;;;;;;6275844;22;20222;-76
2023/08/13 05:19:51;;;;;;;8.73;8.13;;;21.10;63.40;;;;;;6270794;22;20530;-77
2023/08/13 05:22:47;;;;;;;8.80;8.17;;;21.10;63.50;;;;;;6274138;22;20487;-78
2023/08/13 05:26:00;;;;;;;8.40;7.87;;;21.20;63.40;;;;;;6248406;22;20598;-78
2023/08/13 05:29:06;;;;;;;7.97;7.37;;;21.10;64.30;;;;;;6248361;22;20400;-77
2023/08/13 05:31:57;;;;;;;8.67;8.07;;;21.20;65.90;;;;;;6243558;22;20452;-77
2023/08/13 05:34:53;;;;;;;7.47;6.97;;;21.20;65.70;;;;;;6243290;23;20447;-77
2023/08/13 05:37:33;;;;;;;8.23;7.73;;;21.20;65.50;;;;;;6246814;23;20390;-77
2023/08/13 05:46:29;;;;;;;8.37;7.87;;;21.20;65.40;;;;;;6096462;23;20381;-79
2023/08/13 05:48:57;;;;;;;8.30;7.70;;;21.30;65.10;;;;;;6217294;23;20375;-80
2023/08/13 05:51:56;;;;;;;9.83;8.90;;;21.30;64.80;;;;;;6234743;22;20206;-78
2023/08/13 05:54:21;;;;;;;7.70;7.30;;;21.30;64.70;;;;;;6250307;22;20720;-79
2023/08/13 05:57:05;;;;;;;8.10;7.70;;;21.30;64.50;;;;;;6277573;22;20373;-76
2023/08/13 05:59:33;;;;;;;7.47;7.07;;;21.30;64.50;;;;;;6248045;22;20154;-76
2023/08/13 06:01:58;;;;;;;7.80;7.40;;;21.30;64.00;;;;;;6254095;22;20393;-76
2023/08/13 06:04:24;;;;;;;8.30;7.80;;;21.40;64.40;;;;;;6243222;23;20394;-76
2023/08/13 06:06:49;;;;;;;8.87;8.20;;;21.30;63.30;;;;;;6243891;23;20295;-77
2023/08/13 06:09:15;;;;;;;7.97;7.50;;;21.40;63.20;;;;;;6242427;23;20146;-76
2023/08/13 06:11:40;;;;;;;8.00;7.60;;;21.30;63.30;;;;;;6242805;22;20499;-78
2023/08/13 06:14:06;;;;;;;8.70;8.10;;;21.40;63.50;;;;;;6216458;23;20175;-77
2023/08/13 06:16:31;;;;;;;8.20;7.80;;;21.30;63.70;;;;;;6243301;23;20143;-76
2023/08/13 06:18:57;;;;;;;8.40;7.70;;;21.40;63.90;;;;;;6216937;23;20190;-76
2023/08/13 06:21:22;;;;;;;8.97;8.37;;;21.40;64.10;;;;;;6216821;23;20590;-77
2023/08/13 06:23:48;;;;;;;9.07;8.57;;;21.40;64.80;;;;;;6217083;23;20181;-76
2023/08/13 06:26:13;;;;;;;8.90;8.23;;;21.30;65.60;;;;;;6243778;23;20587;-76
2023/08/13 06:28:40;;;;;;;8.50;7.80;;;21.30;65.50;;;;;;6244096;23;20155;-76
2023/08/13 06:31:05;;;;;;;8.63;7.93;;;21.30;65.80;;;;;;6242986;22;20186;-76
2023/08/13 06:33:31;;;;;;;8.37;7.87;;;21.30;65.90;;;;;;6244243;23;20403;-76
2023/08/13 06:35:57;;;;;;;8.80;8.20;;;21.30;66.70;;;;;;6217403;23;20578;-76
2023/08/13 06:38:26;;;;;;;8.70;7.90;;;21.30;67.10;;;;;;6244284;23;20800;-76
2023/08/13 06:40:51;;;;;;;8.77;8.07;;;21.30;67.50;;;;;;6244322;22;20167;-76
2023/08/13 06:43:17;;;;;;;7.83;7.33;;;21.40;67.30;;;;;;6218984;23;20439;-76
2023/08/13 06:45:43;;;;;;;8.47;7.97;;;21.40;66.40;;;;;;6247604;23;20151;-77
2023/08/13 06:48:08;;;;;;;8.07;7.47;;;21.40;66.10;;;;;;6245039;23;20186;-76
2023/08/13 06:50:34;;;;;;;8.00;7.50;;;21.40;66.40;;;;;;6218289;22;20680;-76
2023/08/13 06:53:00;;;;;;;10.43;9.40;;;21.50;66.20;;;;;;6244782;23;20190;-76
2023/08/13 06:55:25;;;;;;;11.50;10.73;;;21.40;65.70;;;;;;6244978;23;20842;-77
2023/08/13 06:57:51;;;;;;;8.93;8.23;;;21.40;67.40;;;;;;6217103;23;20155;-76
2023/08/13 07:00:19;;;;;;;8.90;8.23;;;21.40;67.90;;;;;;6244578;23;20151;-76
2023/08/13 07:02:45;;;;;;;7.73;7.20;;;21.40;67.90;;;;;;6244594;22;20242;-76
2023/08/13 07:05:12;;;;;;;9.10;8.50;;;21.40;65.90;;;;;;6217277;23;20410;-76
2023/08/13 07:07:38;;;;;;;8.13;7.63;;;21.20;67.20;;;;;;6243174;23;20234;-76
2023/08/13 07:10:04;;;;;;;8.70;8.20;;;21.20;68.10;;;;;;6244135;23;20450;-74
2023/08/13 07:12:30;;;;;;;8.33;7.63;;;21.30;69.50;;;;;;6244878;22;20174;-74
2023/08/13 07:14:56;;;;;;;8.57;7.97;;;21.30;69.00;;;;;;6244515;23;20374;-74
2023/08/13 07:17:21;;;;;;;8.97;8.47;;;21.30;69.00;;;;;;6243573;23;20198;-74
2023/08/13 07:19:48;;;;;;;8.23;7.37;;;21.30;70.00;;;;;;6242039;23;20155;-75
2023/08/13 07:22:13;;;;;;;8.63;8.03;;;21.40;70.40;;;;;;6242148;22;20175;-76
2023/08/13 07:24:38;;;;;;;8.47;7.87;;;21.40;70.00;;;;;;6242444;23;20374;-76
2023/08/13 07:27:04;;;;;;;7.90;7.40;;;21.40;69.40;;;;;;6243012;23;20156;-76
2023/08/13 07:29:29;;;;;;;9.27;8.50;;;21.30;67.80;;;;;;6242085;23;20186;-76
2023/08/13 07:31:55;;;;;;;8.47;7.80;;;21.40;67.90;;;;;;6215937;23;20250;-76
2023/08/13 07:34:22;;;;;;;8.27;7.70;;;21.40;68.00;;;;;;6218186;23;20242;-76
2023/08/13 07:36:47;;;;;;;8.30;7.70;;;21.40;67.60;;;;;;6244863;23;20765;-75
2023/08/13 07:39:13;;;;;;;8.90;8.30;;;21.40;67.30;;;;;;6217190;23;20243;-75
2023/08/13 07:41:38;;;;;;;7.97;7.47;;;21.40;67.00;;;;;;6244358;22;20246;-76
2023/08/13 07:44:05;;;;;;;9.57;8.97;;;21.40;67.60;;;;;;6246890;23;20155;-76
2023/08/13 07:46:31;;;;;;;8.70;8.03;;;21.50;68.10;;;;;;6246534;23;20219;-76
2023/08/13 07:48:56;;;;;;;7.90;7.40;;;21.50;68.00;;;;;;6219241;23;20398;-76
2023/08/13 07:51:22;;;;;;;8.40;7.87;;;21.60;68.50;;;;;;6245957;22;20265;-76
2023/08/13 07:53:48;;;;;;;8.60;8.00;;;21.50;68.90;;;;;;6246576;23;20512;-75
2023/08/13 07:56:13;;;;;;;7.93;7.40;;;21.60;69.20;;;;;;6219269;23;20725;-75
2023/08/13 07:58:39;;;;;;;8.97;8.27;;;21.60;69.50;;;;;;6246397;23;20179;-75
2023/08/13 08:01:04;;;;;;;8.73;8.13;;;21.60;68.60;;;;;;6219295;23;20627;-76
2023/08/13 08:03:30;;;;;;;8.40;7.90;;;21.60;68.10;;;;;;6246101;23;20151;-75
2023/08/13 08:05:55;;;;;;;9.83;8.20;;;21.60;66.60;;;;;;6219729;23;20155;-77
2023/08/13 08:08:21;;;;;;;8.60;8.00;;;21.60;65.10;;;;;;6245800;23;20148;-76
2023/08/13 08:10:47;;;;;;;8.47;8.07;;;21.60;65.60;;;;;;6245857;22;20183;-76
2023/08/13 08:13:12;;;;;;;8.53;8.03;;;21.70;65.10;;;;;;6246122;23;20144;-76
2023/08/13 08:15:38;;;;;;;8.00;7.40;;;21.70;65.20;;;;;;6245917;23;20526;-76
2023/08/13 08:18:04;;;;;;;9.07;8.47;;;21.70;64.00;;;;;;6245850;23;20154;-76
2023/08/13 08:20:29;;;;;;;9.47;8.77;;;21.70;64.10;;;;;;6245717;22;20152;-76
2023/08/13 08:22:55;;;;;;;8.70;8.20;;;21.80;63.80;;;;;;6246138;23;20569;-76
2023/08/13 08:25:20;;;;;;;9.87;9.20;;;21.70;62.30;;;;;;6246110;23;20155;-76
2023/08/13 08:27:46;;;;;;;9.47;8.67;;;21.70;61.90;;;;;;6219022;23;20183;-77
2023/08/13 08:30:12;;;;;;;8.57;8.07;;;21.70;62.70;;;;;;6245494;23;20171;-76
2023/08/13 08:32:37;;;;;;;7.50;7.10;;;21.80;63.00;;;;;;6246390;22;20171;-76
2023/08/13 08:35:04;;;;;;;9.23;8.70;;;21.80;63.40;;;;;;6246284;23;20453;-76
2023/08/13 08:37:31;;;;;;;7.43;7.03;;;21.90;63.50;;;;;;6245727;23;20147;-76
2023/08/13 08:39:57;;;;;;;7.80;7.30;;;21.80;62.00;;;;;;6245739;23;20382;-76
2023/08/13 08:42:23;;;;;;;9.13;8.40;;;21.80;61.60;;;;;;6218807;23;20406;-76
2023/08/13 08:44:50;;;;;;;8.60;8.03;;;21.80;61.00;;;;;;6218957;23;20155;-76
2023/08/13 08:47:17;;;;;;;9.50;8.90;;;21.90;60.30;;;;;;6245701;23;20395;-76
2023/08/13 08:49:46;;;;;;;7.93;7.47;;;21.90;60.10;;;;;;6245525;23;20410;-76
2023/08/13 08:52:14;;;;;;;9.87;8.97;;;21.90;60.80;;;;;;6213493;23;20425;-76
2023/08/13 08:54:40;;;;;;;11.83;11.13;;;22.00;61.10;;;;;;6215515;23;20371;-76
2023/08/13 08:57:06;;;;;;;10.57;9.87;;;22.00;62.10;;;;;;6215623;23;20424;-76
2023/08/13 08:59:31;;;;;;;9.10;8.50;;;22.00;62.20;;;;;;6215215;23;20184;-76
2023/08/13 09:01:57;;;;;;;9.20;8.60;;;22.10;62.70;;;;;;6215126;23;20628;-76
2023/08/13 09:04:22;;;;;;;8.80;8.30;;;22.00;62.20;;;;;;6213730;23;20162;-76
2023/08/13 09:06:59;;;;;;;9.50;8.97;;;22.00;62.50;;;;;;6215336;23;20485;-76
2023/08/13 09:09:26;;;;;;;10.20;9.57;;;22.10;62.90;;;;;;6213079;23;20148;-76
2023/08/13 09:11:53;;;;;;;10.20;9.50;;;22.10;62.60;;;;;;6215042;23;20422;-76
2023/08/13 09:14:20;;;;;;;8.97;8.40;;;22.10;63.50;;;;;;6215118;23;20371;-76
2023/08/13 09:16:46;;;;;;;10.10;9.50;;;22.10;63.40;;;;;;6215447;23;20394;-76
2023/08/13 09:19:12;;;;;;;9.97;9.23;;;22.10;63.50;;;;;;6214703;23;20378;-76
2023/08/13 09:21:40;;;;;;;9.50;8.80;;;22.10;63.50;;;;;;6215242;23;20406;-76
2023/08/13 09:24:07;;;;;;;9.23;8.60;;;22.10;63.40;;;;;;6215178;23;20429;-77
2023/08/13 09:26:33;;;;;;;8.73;8.30;;;22.10;63.00;;;;;;6215297;23;20374;-76
2023/08/13 09:28:59;;;;;;;10.20;9.60;;;22.10;62.30;;;;;;6214870;23;20372;-76
2023/08/13 09:31:25;;;;;;;9.77;9.20;;;22.10;62.00;;;;;;6214792;23;20184;-76
2023/08/13 09:33:51;;;;;;;9.97;9.37;;;22.10;62.00;;;;;;6213502;23;20386;-76
2023/08/13 09:36:17;;;;;;;10.10;9.50;;;22.20;60.80;;;;;;6213247;23;20441;-76
2023/08/13 09:38:42;;;;;;;9.80;9.10;;;22.20;60.20;;;;;;6213570;23;20375;-76
2023/08/13 09:41:10;;;;;;;10.03;9.33;;;22.30;59.20;;;;;;6215453;23;20179;-75
2023/08/13 09:43:37;;;;;;;10.80;9.90;;;22.30;59.20;;;;;;6213192;23;20188;-73
2023/08/13 09:46:06;;;;;;;8.97;8.43;;;22.50;59.90;;;;;;6214818;23;20383;-73
2023/08/13 09:48:32;;;;;;;9.73;8.80;;;22.70;57.70;;;;;;6214121;23;20378;-75
2023/08/13 09:51:01;;;;;;;9.00;8.50;;;22.80;55.00;;;;;;6217507;23;20434;-74
2023/08/13 09:53:29;;;;;;;9.30;8.70;;;22.80;54.50;;;;;;6244988;23;20929;-74
2023/08/13 09:56:00;;;;;;;9.20;8.70;;;22.90;53.80;;;;;;6245001;23;20366;-75
2023/08/13 09:58:28;;;;;;;9.20;8.50;;;23.10;52.20;;;;;;6217710;23;20386;-74
2023/08/13 10:00:54;;;;;;;9.80;9.17;;;23.20;50.80;;;;;;6245399;22;20479;-74
2023/08/13 10:03:19;;;;;;;9.37;8.87;;;23.40;49.90;;;;;;6245184;23;20866;-74
2023/08/13 10:05:45;;;;;;;11.13;10.33;;;23.40;48.10;;;;;;6218295;23;20199;-74
2023/08/13 10:08:12;;;;;;;9.43;8.83;;;23.40;49.50;;;;;;6245004;23;20147;-75
2023/08/13 10:10:38;;;;;;;9.47;8.90;;;23.40;50.10;;;;;;6245098;22;20955;-75
2023/08/13 10:13:06;;;;;;;10.20;9.40;;;23.40;49.00;;;;;;6245551;23;20383;-75
2023/08/13 10:15:34;;;;;;;10.10;9.67;;;23.40;48.40;;;;;;6245188;23;20375;-75
2023/08/13 10:17:59;;;;;;;10.10;9.20;;;23.40;47.50;;;;;;6244805;23;20372;-75
2023/08/13 10:20:25;;;;;;;9.33;8.63;;;23.50;47.80;;;;;;6245197;23;20821;-75
2023/08/13 10:22:52;;;;;;;11.33;10.53;;;23.50;47.50;;;;;;6218485;23;20638;-75
2023/08/13 10:25:27;;;;;;;9.83;9.33;;;23.40;47.80;;;;;;6218081;23;20389;-75
2023/08/13 10:27:54;;;;;;;10.60;10.10;;;23.40;47.80;;;;;;6244734;23;20385;-75
2023/08/13 10:30:19;;;;;;;9.17;8.70;;;23.40;48.70;;;;;;6244791;23;20419;-75
2023/08/13 10:32:49;;;;;;;10.50;9.83;;;23.50;48.50;;;;;;6218219;23;20410;-75
2023/08/13 10:35:34;;;;;;;10.27;9.43;;;23.60;47.80;;;;;;6245031;23;20175;-75
2023/08/13 10:38:02;;;;;;;9.90;9.40;;;23.60;47.50;;;;;;6217961;23;20877;-75
2023/08/13 10:40:28;;;;;;;10.70;9.90;;;23.70;46.80;;;;;;6244608;22;20385;-75
2023/08/13 10:42:58;;;;;;;9.13;8.43;;;23.80;46.00;;;;;;6244807;23;20851;-75
2023/08/13 10:45:25;;;;;;;14.40;13.30;;;23.80;45.80;;;;;;6244920;23;20363;-75
2023/08/13 10:47:57;;;;;;;10.13;9.67;;;23.80;45.70;;;;;;6217733;23;20389;-75
2023/08/13 10:50:30;;;;;;;9.40;8.93;;;23.80;46.20;;;;;;6244890;23;20906;-75
2023/08/13 10:53:03;;;;;;;11.80;11.00;;;23.70;46.00;;;;;;6212760;23;20472;-75
2023/08/13 10:55:32;;;;;;;9.77;9.27;;;23.80;46.40;;;;;;6212889;23;20375;-75
2023/08/13 10:57:59;;;;;;;9.73;9.23;;;23.80;47.40;;;;;;6212809;23;20387;-75
2023/08/13 11:00:26;;;;;;;10.00;9.43;;;23.70;47.10;;;;;;6215297;23;20378;-75
2023/08/13 11:03:43;;;;;;;10.43;9.90;;;23.70;46.90;;;;;;6216857;23;20403;-75
2023/08/13 11:06:09;;;;;;;9.83;9.20;;;23.70;46.40;;;;;;6202715;23;20387;-75
2023/08/13 11:08:37;;;;;;;10.40;9.90;;;23.60;46.80;;;;;;6216075;23;20371;-75
2023/08/13 11:11:03;;;;;;;10.27;9.70;;;23.70;47.10;;;;;;6214995;23;20662;-75
2023/08/13 11:13:29;;;;;;;9.10;8.60;;;23.60;46.80;;;;;;6214787;23;20406;-74
2023/08/13 11:15:55;;;;;;;9.43;8.90;;;23.70;47.40;;;;;;6214857;23;20215;-74
2023/08/13 11:18:22;;;;;;;10.20;9.53;;;23.60;47.70;;;;;;6215860;23;20394;-74
2023/08/13 11:20:49;;;;;;;10.13;9.50;;;23.70;46.40;;;;;;6214615;23;20413;-74
2023/08/13 11:23:16;;;;;;;9.40;8.80;;;23.70;46.90;;;;;;6214834;23;20391;-74
2023/08/13 11:25:43;;;;;;;9.57;8.97;;;23.80;46.20;;;;;;6216097;23;20390;-74
2023/08/13 11:28:09;;;;;;;9.23;8.53;;;23.80;46.20;;;;;;6216099;23;20375;-74
2023/08/13 11:30:40;;;;;;;9.77;9.03;;;23.80;46.30;;;;;;6215999;23;20735;-75
2023/08/13 11:33:05;;;;;;;8.37;7.77;;;23.90;46.80;;;;;;6215203;23;20351;-75
2023/08/13 11:35:31;;;;;;;8.83;8.30;;;24.00;47.30;;;;;;6216153;23;20381;-75
2023/08/13 11:37:56;;;;;;;8.47;8.03;;;24.10;46.80;;;;;;6214545;23;20576;-75
2023/08/13 11:40:22;;;;;;;8.60;7.90;;;24.10;45.80;;;;;;6216005;23;20152;-76
2023/08/13 11:42:56;;;;;;;9.93;9.33;;;24.10;45.40;;;;;;6214440;23;20506;-76
2023/08/13 11:45:25;;;;;;;8.37;7.77;;;24.10;46.10;;;;;;6215304;23;20476;-76
2023/08/13 11:47:52;;;;;;;8.87;8.30;;;24.10;46.50;;;;;;6215611;23;20386;-76
2023/08/13 11:50:23;;;;;;;8.90;8.20;;;24.10;46.80;;;;;;6215281;23;20453;-76
2023/08/13 11:53:21;;;;;;;10.13;9.00;;;24.10;46.90;;;;;;6241620;23;20410;-75
2023/08/13 11:55:48;;;;;;;9.73;9.03;;;24.10;46.70;;;;;;6195397;23;20416;-75
2023/08/13 11:58:17;;;;;;;8.50;8.00;;;24.10;47.00;;;;;;6245956;23;20378;-75
2023/08/13 12:00:44;;;;;;;9.10;8.60;;;24.10;47.10;;;;;;6245629;22;20377;-75
2023/08/13 12:03:13;;;;;;;8.70;8.00;;;24.10;46.80;;;;;;6246210;23;20385;-75
2023/08/13 12:05:39;;;;;;;9.10;8.30;;;24.10;46.70;;;;;;6246333;23;20374;-75
2023/08/13 12:08:07;;;;;;;9.43;8.73;;;24.20;45.80;;;;;;6245977;23;20706;-75
2023/08/13 12:10:34;;;;;;;8.80;8.30;;;24.20;44.90;;;;;;6246047;22;20410;-75
2023/08/13 12:13:00;;;;;;;8.40;7.80;;;24.20;44.40;;;;;;6245521;23;20766;-74
2023/08/13 12:15:26;;;;;;;8.07;7.57;;;24.20;44.00;;;;;;6245370;23;20480;-76
2023/08/13 12:17:52;;;;;;;8.80;8.20;;;24.20;44.00;;;;;;6218634;23;20376;-75
2023/08/13 12:20:18;;;;;;;9.17;8.50;;;24.20;44.00;;;;;;6245718;23;20147;-75
2023/08/13 12:22:44;;;;;;;8.47;7.87;;;24.20;43.70;;;;;;6246174;22;20394;-75
2023/08/13 12:25:09;;;;;;;8.10;7.40;;;24.20;44.00;;;;;;6245728;23;20458;-73
2023/08/13 12:27:35;;;;;;;8.23;7.83;;;24.30;42.20;;;;;;6218919;23;20156;-74
2023/08/13 12:30:01;;;;;;;8.33;7.73;;;24.20;42.10;;;;;;6245233;23;20170;-74
2023/08/13 12:32:27;;;;;;;8.13;7.63;;;24.20;42.50;;;;;;6245639;22;20217;-74
2023/08/13 12:34:52;;;;;;;8.60;7.90;;;24.30;42.00;;;;;;6218870;23;20763;-74
2023/08/13 12:37:18;;;;;;;8.27;7.77;;;24.50;42.10;;;;;;6244525;23;20159;-75
2023/08/13 12:39:43;;;;;;;7.43;6.77;;;24.50;42.50;;;;;;6245463;23;20202;-75
2023/08/13 12:42:10;;;;;;;8.10;7.50;;;24.60;42.50;;;;;;6245700;22;20198;-75
2023/08/13 12:44:35;;;;;;;8.23;7.57;;;24.60;42.20;;;;;;6245926;23;20223;-74
2023/08/13 12:47:01;;;;;;;8.50;8.00;;;24.60;40.90;;;;;;6245657;23;20374;-74
2023/08/13 12:49:27;;;;;;;7.80;7.30;;;24.70;40.20;;;;;;6245330;23;20188;-74
2023/08/13 12:51:52;;;;;;;8.20;7.70;;;24.90;40.30;;;;;;6245156;22;20223;-74
2023/08/13 12:54:18;;;;;;;8.20;7.20;;;25.00;39.80;;;;;;6218246;23;20147;-75